sensor_id;sensor_type;location;lat;lon;timestamp;pressure;altitude;pressure_sealevel;temperature;humidity
19797;BME280;10058;57.654;12.044;2023-01-15T00:01:27;97633.59;;;8.06;100.00
19797;BME280;10058;57.654;12.044;2023-01-15T00:03:53;97619.59;;;8.04;100.00
19797;BME280;10058;57.654;12.044;2023-01-15T00:06:25;97615.22;;;8.04;100.00
19797;BME280;10058;57.654;12.044;2023-01-15T00:08:50;97616.22;;;7.96;100.00
19797;BME280;10058;57.654;12.044;2023-01-15T00:13:56;97617.88;;;8.00;100.00
19797;BME280;10058;57.654;12.044;2023-01-15T00:16:29;97611.03;;;7.90;100.00
19797;BME280;10058;57.654;12.044;2023-01-15T00:18:55;97612.63;;;8.00;100.00
19797;BME280;10058;57.654;12.044;2023-01-15T00:21:22;97610.81;;;8.05;100.00
19797;BME280;10058;57.654;12.044;2023-01-15T00:23:48;97616.16;;;7.99;100.00
19797;BME280;10058;57.654;12.044;2023-01-15T00:26:33;97608.25;;;8.00;100.00
19797;BME280;10058;57.654;12.044;2023-01-15T00:29:17;97604.06;;;7.86;100.00
19797;BME280;10058;57.654;12.044;2023-01-15T00:34:17;97601.41;;;7.86;100.00
19797;BME280;10058;57.654;12.044;2023-01-15T00:36:43;97602.22;;;7.94;100.00
19797;BME280;10058;57.654;12.044;2023-01-15T00:39:09;97604.97;;;7.82;100.00
19797;BME280;10058;57.654;12.044;2023-01-15T00:41:34;97606.84;;;7.74;100.00
19797;BME280;10058;57.654;12.044;2023-01-15T00:44:02;97609.44;;;7.77;100.00
19797;BME280;10058;57.654;12.044;2023-01-15T00:46:27;97584.00;;;7.79;100.00
19797;BME280;10058;57.654;12.044;2023-01-15T00:48:53;97598.97;;;7.71;100.00
19797;BME280;10058;57.654;12.044;2023-01-15T00:51:19;97609.63;;;7.61;100.00
19797;BME280;10058;57.654;12.044;2023-01-15T00:53:44;97607.69;;;7.76;100.00
19797;BME280;10058;57.654;12.044;2023-01-15T00:56:09;97609.47;;;7.72;100.00
19797;BME280;10058;57.654;12.044;2023-01-15T00:58:35;97618.19;;;7.79;100.00
19797;BME280;10058;57.654;12.044;2023-01-15T01:01:00;97613.13;;;7.60;100.00
19797;BME280;10058;57.654;12.044;2023-01-15T01:03:25;97610.50;;;7.60;100.00
19797;BME280;10058;57.654;12.044;2023-01-15T01:06:02;97616.66;;;7.59;100.00
19797;BME280;10058;57.654;12.044;2023-01-15T01:08:28;97628.06;;;7.57;100.00
19797;BME280;10058;57.654;12.044;2023-01-15T01:11:04;97637.47;;;7.76;100.00
19797;BME280;10058;57.654;12.044;2023-01-15T01:13:30;97635.72;;;7.77;100.00
19797;BME280;10058;57.654;12.044;2023-01-15T01:15:58;97638.47;;;7.64;100.00
19797;BME280;10058;57.654;12.044;2023-01-15T01:18:23;97634.06;;;7.66;100.00
19797;BME280;10058;57.654;12.044;2023-01-15T01:20:54;97634.16;;;7.60;100.00
19797;BME280;10058;57.654;12.044;2023-01-15T01:23:21;97637.69;;;7.56;100.00
19797;BME280;10058;57.654;12.044;2023-01-15T01:25:46;97637.78;;;7.46;100.00
19797;BME280;10058;57.654;12.044;2023-01-15T01:28:11;97653.53;;;7.50;100.00
19797;BME280;10058;57.654;12.044;2023-01-15T01:30:37;97641.28;;;7.46;100.00
19797;BME280;10058;57.654;12.044;2023-01-15T01:33:03;97639.50;;;7.51;100.00
19797;BME280;10058;57.654;12.044;2023-01-15T01:35:28;97634.19;;;7.57;100.00
19797;BME280;10058;57.654;12.044;2023-01-15T01:37:53;97644.72;;;7.54;100.00
19797;BME280;10058;57.654;12.044;2023-01-15T01:40:18;97646.53;;;7.49;100.00
19797;BME280;10058;57.654;12.044;2023-01-15T01:42:46;97648.28;;;7.47;100.00
19797;BME280;10058;57.654;12.044;2023-01-15T01:45:22;97641.25;;;7.52;100.00
19797;BME280;10058;57.654;12.044;2023-01-15T01:47:49;97641.28;;;7.46;100.00
19797;BME280;10058;57.654;12.044;2023-01-15T01:50:16;97641.41;;;7.34;100.00
19797;BME280;10058;57.654;12.044;2023-01-15T01:52:47;97638.81;;;7.31;100.00
19797;BME280;10058;57.654;12.044;2023-01-15T01:55:13;97645.00;;;7.27;100.00
19797;BME280;10058;57.654;12.044;2023-01-15T01:57:40;97631.88;;;7.27;100.00
19797;BME280;10058;57.654;12.044;2023-01-15T02:02:47;97643.28;;;7.23;100.00
19797;BME280;10058;57.654;12.044;2023-01-15T02:05:20;97637.97;;;7.27;100.00
19797;BME280;10058;57.654;12.044;2023-01-15T02:07:48;97636.28;;;7.22;100.00
19797;BME280;10058;57.654;12.044;2023-01-15T02:10:16;97631.94;;;7.18;100.00
19797;BME280;10058;57.654;12.044;2023-01-15T02:12:43;97639.94;;;7.09;100.00
19797;BME280;10058;57.654;12.044;2023-01-15T02:15:21;97646.19;;;6.91;100.00
19797;BME280;10058;57.654;12.044;2023-01-15T02:17:54;97648.75;;;6.95;100.00
19797;BME280;10058;57.654;12.044;2023-01-15T02:20:38;97648.72;;;7.02;100.00
19797;BME280;10058;57.654;12.044;2023-01-15T02:28:31;97636.50;;;6.97;100.00
19797;BME280;10058;57.654;12.044;2023-01-15T02:31:08;97637.34;;;7.01;100.00
19797;BME280;10058;57.654;12.044;2023-01-15T02:33:39;97639.16;;;6.93;100.00
19797;BME280;10058;57.654;12.044;2023-01-15T02:36:08;97632.06;;;7.06;100.00
19797;BME280;10058;57.654;12.044;2023-01-15T02:38:42;97628.72;;;6.85;100.00
19797;BME280;10058;57.654;12.044;2023-01-15T02:41:09;97639.28;;;6.76;100.00
19797;BME280;10058;57.654;12.044;2023-01-15T02:43:49;97647.22;;;6.73;100.00
19797;BME280;10058;57.654;12.044;2023-01-15T02:46:17;97633.22;;;6.71;100.00
19797;BME280;10058;57.654;12.044;2023-01-15T02:48:43;97644.63;;;6.67;100.00
19797;BME280;10058;57.654;12.044;2023-01-15T02:51:14;97647.25;;;6.64;100.00
19797;BME280;10058;57.654;12.044;2023-01-15T02:53:41;97643.84;;;6.53;100.00
19797;BME280;10058;57.654;12.044;2023-01-15T02:56:12;97651.69;;;6.57;100.00
19797;BME280;10058;57.654;12.044;2023-01-15T02:58:39;97654.38;;;6.42;100.00
19797;BME280;10058;57.654;12.044;2023-01-15T03:01:10;97636.91;;;6.43;100.00
19797;BME280;10058;57.654;12.044;2023-01-15T03:03:58;97656.09;;;6.54;100.00
19797;BME280;10058;57.654;12.044;2023-01-15T03:06:31;97655.22;;;6.52;100.00
19797;BME280;10058;57.654;12.044;2023-01-15T03:08:57;97643.75;;;6.65;100.00
19797;BME280;10058;57.654;12.044;2023-01-15T03:11:25;97643.66;;;6.76;100.00
19797;BME280;10058;57.654;12.044;2023-01-15T03:16:39;97636.66;;;6.79;100.00
19797;BME280;10058;57.654;12.044;2023-01-15T03:24:38;97637.63;;;6.68;100.00
19797;BME280;10058;57.654;12.044;2023-01-15T03:27:06;97637.53;;;6.77;100.00
19797;BME280;10058;57.654;12.044;2023-01-15T03:29:32;97637.53;;;6.77;100.00
19797;BME280;10058;57.654;12.044;2023-01-15T03:31:59;97626.88;;;6.96;100.00
19797;BME280;10058;57.654;12.044;2023-01-15T03:37:29;97632.97;;;7.02;100.00
19797;BME280;10058;57.654;12.044;2023-01-15T03:45:10;97629.50;;;6.96;100.00
19797;BME280;10058;57.654;12.044;2023-01-15T03:50:41;97626.03;;;6.94;100.00
19797;BME280;10058;57.654;12.044;2023-01-15T03:53:29;97634.72;;;7.04;100.00
19797;BME280;10058;57.654;12.044;2023-01-15T03:58:56;97634.75;;;6.96;100.00
19797;BME280;10058;57.654;12.044;2023-01-15T04:01:36;97622.47;;;7.02;100.00
19797;BME280;10058;57.654;12.044;2023-01-15T04:04:02;97627.69;;;7.05;100.00
19797;BME280;10058;57.654;12.044;2023-01-15T04:06:30;97625.97;;;7.04;100.00
19797;BME280;10058;57.654;12.044;2023-01-15T04:08:57;97618.84;;;7.15;100.00
19797;BME280;10058;57.654;12.044;2023-01-15T04:11:26;97615.44;;;7.08;100.00
19797;BME280;10058;57.654;12.044;2023-01-15T04:13:51;97617.19;;;7.05;100.00
19797;BME280;10058;57.654;12.044;2023-01-15T04:16:27;97617.13;;;7.11;100.00
19797;BME280;10058;57.654;12.044;2023-01-15T04:18:53;97619.00;;;6.96;100.00
19797;BME280;10058;57.654;12.044;2023-01-15T04:21:19;97612.00;;;6.98;100.00
19797;BME280;10058;57.654;12.044;2023-01-15T04:23:44;97619.09;;;6.90;100.00
19797;BME280;10058;57.654;12.044;2023-01-15T04:26:11;97614.66;;;6.94;100.00
19797;BME280;10058;57.654;12.044;2023-01-15T04:28:37;97615.59;;;6.88;100.00
19797;BME280;10058;57.654;12.044;2023-01-15T04:31:04;97610.25;;;6.97;100.00
19797;BME280;10058;57.654;12.044;2023-01-15T04:33:30;97606.72;;;7.02;100.00
19797;BME280;10058;57.654;12.044;2023-01-15T04:35:57;97617.22;;;7.02;100.00
19797;BME280;10058;57.654;12.044;2023-01-15T04:38:23;97603.25;;;6.95;100.00
19797;BME280;10058;57.654;12.044;2023-01-15T04:40:48;97603.25;;;6.96;100.00
19797;BME280;10058;57.654;12.044;2023-01-15T04:43:31;97594.47;;;7.01;100.00
19797;BME280;10058;57.654;12.044;2023-01-15T04:46:19;97598.03;;;6.93;100.00
19797;BME280;10058;57.654;12.044;2023-01-15T04:48:44;97608.41;;;7.09;100.00
19797;BME280;10058;57.654;12.044;2023-01-15T04:51:12;97603.22;;;7.03;100.00
19797;BME280;10058;57.654;12.044;2023-01-15T04:53:37;97608.47;;;7.03;100.00
19797;BME280;10058;57.654;12.044;2023-01-15T04:58:32;97592.75;;;6.96;100.00
19797;BME280;10058;57.654;12.044;2023-01-15T05:00:58;97593.56;;;7.05;100.00
19797;BME280;10058;57.654;12.044;2023-01-15T05:03:26;97588.31;;;7.06;100.00
19797;BME280;10058;57.654;12.044;2023-01-15T05:05:52;97596.09;;;7.14;100.00
19797;BME280;10058;57.654;12.044;2023-01-15T05:08:17;97595.22;;;7.15;100.00
19797;BME280;10058;57.654;12.044;2023-01-15T05:10:44;97582.25;;;6.96;100.00
19797;BME280;10058;57.654;12.044;2023-01-15T05:13:09;97590.09;;;7.01;100.00
19797;BME280;10058;57.654;12.044;2023-01-15T05:15:36;97585.69;;;7.05;100.00
19797;BME280;10058;57.654;12.044;2023-01-15T05:18:03;97577.69;;;7.15;100.00
19797;BME280;10058;57.654;12.044;2023-01-15T05:20:29;97573.34;;;7.13;100.00
19797;BME280;10058;57.654;12.044;2023-01-15T05:22:54;97570.78;;;7.07;100.00
19797;BME280;10058;57.654;12.044;2023-01-15T05:25:20;97560.38;;;6.96;100.00
19797;BME280;10058;57.654;12.044;2023-01-15T05:27:45;97559.47;;;7.02;100.00
19797;BME280;10058;57.654;12.044;2023-01-15T05:30:11;97571.72;;;7.03;100.00
19797;BME280;10058;57.654;12.044;2023-01-15T05:32:38;97554.31;;;6.92;100.00
19797;BME280;10058;57.654;12.044;2023-01-15T05:35:03;97555.06;;;7.02;100.00
19797;BME280;10058;57.654;12.044;2023-01-15T05:37:29;97564.75;;;6.95;100.00
19797;BME280;10058;57.654;12.044;2023-01-15T05:39:54;97575.31;;;6.91;100.00
19797;BME280;10058;57.654;12.044;2023-01-15T05:42:20;97562.19;;;6.92;100.00
19797;BME280;10058;57.654;12.044;2023-01-15T05:44:47;97575.16;;;7.08;100.00
19797;BME280;10058;57.654;12.044;2023-01-15T05:47:19;97576.81;;;7.15;100.00
19797;BME280;10058;57.654;12.044;2023-01-15T05:49:44;97570.78;;;7.10;100.00
19797;BME280;10058;57.654;12.044;2023-01-15T05:52:10;97561.19;;;7.06;100.00
19797;BME280;10058;57.654;12.044;2023-01-15T05:54:36;97574.34;;;7.03;100.00
19797;BME280;10058;57.654;12.044;2023-01-15T05:57:04;97555.91;;;7.09;100.00
19797;BME280;10058;57.654;12.044;2023-01-15T05:59:29;97561.09;;;7.12;100.00
19797;BME280;10058;57.654;12.044;2023-01-15T06:01:56;97561.31;;;6.92;100.00
19797;BME280;10058;57.654;12.044;2023-01-15T06:04:22;97561.16;;;7.09;100.00
19797;BME280;10058;57.654;12.044;2023-01-15T06:07:04;97554.09;;;7.11;100.00
19797;BME280;10058;57.654;12.044;2023-01-15T06:09:30;97559.28;;;7.20;100.00
19797;BME280;10058;57.654;12.044;2023-01-15T06:11:55;97554.97;;;7.13;100.00
19797;BME280;10058;57.654;12.044;2023-01-15T06:14:20;97548.94;;;7.05;100.00
19797;BME280;10058;57.654;12.044;2023-01-15T06:16:46;97551.41;;;7.18;100.00
19797;BME280;10058;57.654;12.044;2023-01-15T06:19:12;97558.44;;;7.15;100.00
19797;BME280;10058;57.654;12.044;2023-01-15T06:24:09;97539.22;;;7.11;100.00
19797;BME280;10058;57.654;12.044;2023-01-15T06:26:39;97554.97;;;7.11;100.00
19797;BME280;10058;57.654;12.044;2023-01-15T06:29:05;97547.97;;;7.12;100.00
19797;BME280;10058;57.654;12.044;2023-01-15T06:31:31;97552.47;;;7.02;100.00
19797;BME280;10058;57.654;12.044;2023-01-15T06:33:56;97551.41;;;7.17;100.00
19797;BME280;10058;57.654;12.044;2023-01-15T06:36:23;97550.69;;;7.06;100.00
19797;BME280;10058;57.654;12.044;2023-01-15T06:38:49;97541.91;;;7.07;100.00
19797;BME280;10058;57.654;12.044;2023-01-15T06:41:18;97538.34;;;7.12;100.00
19797;BME280;10058;57.654;12.044;2023-01-15T06:44:03;97534.84;;;7.12;100.00
19797;BME280;10058;57.654;12.044;2023-01-15T06:46:50;97533.94;;;7.16;100.00
19797;BME280;10058;57.654;12.044;2023-01-15T06:49:35;97498.13;;;7.09;100.00
19797;BME280;10058;57.654;12.044;2023-01-15T06:54:33;97522.66;;;7.08;100.00
19797;BME280;10058;57.654;12.044;2023-01-15T06:57:04;97528.66;;;7.19;100.00
19797;BME280;10058;57.654;12.044;2023-01-15T06:59:30;97522.50;;;7.20;100.00
19797;BME280;10058;57.654;12.044;2023-01-15T07:01:57;97508.56;;;7.12;100.00
19797;BME280;10058;57.654;12.044;2023-01-15T07:04:24;97526.88;;;7.22;100.00
19797;BME280;10058;57.654;12.044;2023-01-15T07:09:34;97521.59;;;7.25;100.00
19797;BME280;10058;57.654;12.044;2023-01-15T07:12:01;97526.91;;;7.18;100.00
19797;BME280;10058;57.654;12.044;2023-01-15T07:14:26;97521.81;;;7.04;100.00
19797;BME280;10058;57.654;12.044;2023-01-15T07:16:59;97532.09;;;7.25;100.00
19797;BME280;10058;57.654;12.044;2023-01-15T07:19:24;97531.41;;;7.07;100.00
19797;BME280;10058;57.654;12.044;2023-01-15T07:22:01;97534.75;;;7.22;100.00
19797;BME280;10058;57.654;12.044;2023-01-15T07:24:26;97527.63;;;7.32;100.00
19797;BME280;10058;57.654;12.044;2023-01-15T07:29:30;97520.75;;;7.19;100.00
19797;BME280;10058;57.654;12.044;2023-01-15T07:31:56;97538.22;;;7.26;100.00
19797;BME280;10058;57.654;12.044;2023-01-15T07:34:21;97538.16;;;7.29;100.00
19797;BME280;10058;57.654;12.044;2023-01-15T07:36:47;97539.03;;;7.28;100.00
19797;BME280;10058;57.654;12.044;2023-01-15T07:39:15;97541.44;;;7.46;100.00
19797;BME280;10058;57.654;12.044;2023-01-15T07:41:40;97537.19;;;7.39;100.00
19797;BME280;10058;57.654;12.044;2023-01-15T07:44:26;97525.81;;;7.37;100.00
19797;BME280;10058;57.654;12.044;2023-01-15T07:47:21;97531.16;;;7.28;100.00
19797;BME280;10058;57.654;12.044;2023-01-15T07:50:06;97539.97;;;7.24;100.00
19797;BME280;10058;57.654;12.044;2023-01-15T07:52:49;97536.28;;;7.40;100.00
19797;BME280;10058;57.654;12.044;2023-01-15T07:55:15;97525.91;;;7.28;100.00
19797;BME280;10058;57.654;12.044;2023-01-15T07:57:42;97532.75;;;7.44;100.00
19797;BME280;10058;57.654;12.044;2023-01-15T08:00:12;97532.91;;;7.29;100.00
19797;BME280;10058;57.654;12.044;2023-01-15T08:02:41;97527.50;;;7.44;100.00
19797;BME280;10058;57.654;12.044;2023-01-15T08:05:16;97534.59;;;7.33;100.00
19797;BME280;10058;57.654;12.044;2023-01-15T08:07:42;97534.59;;;7.33;100.00
19797;BME280;10058;57.654;12.044;2023-01-15T08:10:09;97534.44;;;7.45;100.00
19797;BME280;10058;57.654;12.044;2023-01-15T08:12:35;97538.09;;;7.35;100.00
19797;BME280;10058;57.654;12.044;2023-01-15T08:15:18;97537.19;;;7.38;100.00
19797;BME280;10058;57.654;12.044;2023-01-15T08:17:46;97545.06;;;7.39;100.00
19797;BME280;10058;57.654;12.044;2023-01-15T08:20:16;97518.75;;;7.42;100.00
19797;BME280;10058;57.654;12.044;2023-01-15T08:22:42;97542.44;;;7.38;100.00
19797;BME280;10058;57.654;12.044;2023-01-15T08:25:12;97533.53;;;7.49;100.00
19797;BME280;10058;57.654;12.044;2023-01-15T08:27:44;97513.44;;;7.45;100.00
19797;BME280;10058;57.654;12.044;2023-01-15T08:30:10;97538.06;;;7.38;100.00
19797;BME280;10058;57.654;12.044;2023-01-15T08:32:44;97522.34;;;7.32;100.00
19797;BME280;10058;57.654;12.044;2023-01-15T08:35:10;97515.47;;;7.25;100.00
19797;BME280;10058;57.654;12.044;2023-01-15T08:37:37;97518.97;;;7.22;100.00
19797;BME280;10058;57.654;12.044;2023-01-15T08:40:11;97522.19;;;7.47;100.00
19797;BME280;10058;57.654;12.044;2023-01-15T08:42:36;97508.25;;;7.42;100.00
19797;BME280;10058;57.654;12.044;2023-01-15T08:45:03;97501.50;;;7.18;100.00
19797;BME280;10058;57.654;12.044;2023-01-15T08:47:28;97506.63;;;7.29;100.00
19797;BME280;10058;57.654;12.044;2023-01-15T08:49:56;97521.50;;;7.30;100.00
19797;BME280;10058;57.654;12.044;2023-01-15T08:52:21;97511.78;;;7.38;100.00
19797;BME280;10058;57.654;12.044;2023-01-15T08:54:47;97524.13;;;7.30;100.00
19797;BME280;10058;57.654;12.044;2023-01-15T08:57:12;97506.41;;;7.47;100.00
19797;BME280;10058;57.654;12.044;2023-01-15T08:59:39;97519.47;;;7.55;100.00
19797;BME280;10058;57.654;12.044;2023-01-15T09:02:08;97520.63;;;7.31;100.00
19797;BME280;10058;57.654;12.044;2023-01-15T09:04:40;97516.13;;;7.42;100.00
19797;BME280;10058;57.654;12.044;2023-01-15T09:07:06;97505.66;;;7.39;100.00
19797;BME280;10058;57.654;12.044;2023-01-15T09:09:32;97506.56;;;7.35;100.00
19797;BME280;10058;57.654;12.044;2023-01-15T09:11:58;97520.56;;;7.37;100.00
19797;BME280;10058;57.654;12.044;2023-01-15T09:14:23;97518.75;;;7.42;100.00
19797;BME280;10058;57.654;12.044;2023-01-15T09:16:48;97502.09;;;7.43;100.00
19797;BME280;10058;57.654;12.044;2023-01-15T09:19:14;97516.22;;;7.34;100.00
19797;BME280;10058;57.654;12.044;2023-01-15T09:21:39;97515.13;;;7.51;100.00
19797;BME280;10058;57.654;12.044;2023-01-15T09:24:04;97515.47;;;7.25;100.00
19797;BME280;10058;57.654;12.044;2023-01-15T09:26:48;97527.72;;;7.26;100.00
19797;BME280;10058;57.654;12.044;2023-01-15T09:29:17;97508.47;;;7.24;100.00
19797;BME280;10058;57.654;12.044;2023-01-15T09:31:42;97510.09;;;7.34;100.00
19797;BME280;10058;57.654;12.044;2023-01-15T09:34:07;97510.09;;;7.34;100.00
19797;BME280;10058;57.654;12.044;2023-01-15T09:36:33;97513.72;;;7.24;100.00
19797;BME280;10058;57.654;12.044;2023-01-15T09:39:00;97506.50;;;7.41;100.00
19797;BME280;10058;57.654;12.044;2023-01-15T09:41:30;97496.94;;;7.36;100.00
19797;BME280;10058;57.654;12.044;2023-01-15T09:46:55;97486.63;;;7.20;100.00
19797;BME280;10058;57.654;12.044;2023-01-15T09:52:00;97499.50;;;7.42;100.00
19797;BME280;10058;57.654;12.044;2023-01-15T09:57:00;97490.72;;;7.43;100.00
19797;BME280;10058;57.654;12.044;2023-01-15T09:59:39;97513.31;;;7.57;100.00
19797;BME280;10058;57.654;12.044;2023-01-15T10:02:40;97489.72;;;7.51;100.00
19797;BME280;10058;57.654;12.044;2023-01-15T10:05:32;97499.38;;;7.49;100.00
19797;BME280;10058;57.654;12.044;2023-01-15T10:10:19;97493.34;;;7.44;100.00
19797;BME280;10058;57.654;12.044;2023-01-15T10:12:47;97508.28;;;7.39;100.00
19797;BME280;10058;57.654;12.044;2023-01-15T10:18:01;97493.34;;;7.44;100.00
19797;BME280;10058;57.654;12.044;2023-01-15T10:25:51;97507.31;;;7.45;100.00
19797;BME280;10058;57.654;12.044;2023-01-15T10:28:27;97502.88;;;7.51;100.00
19797;BME280;10058;57.654;12.044;2023-01-15T10:30:53;97500.22;;;7.51;100.00
19797;BME280;10058;57.654;12.044;2023-01-15T10:35:53;97499.34;;;7.52;100.00
19797;BME280;10058;57.654;12.044;2023-01-15T10:43:34;97498.31;;;7.62;100.00
19797;BME280;10058;57.654;12.044;2023-01-15T10:46:23;97492.16;;;7.66;100.00
19797;BME280;10058;57.654;12.044;2023-01-15T10:54:15;97490.44;;;7.62;100.00
19797;BME280;10058;57.654;12.044;2023-01-15T11:01:55;97482.13;;;7.96;100.00
19797;BME280;10058;57.654;12.044;2023-01-15T11:04:23;97474.34;;;7.87;100.00
19797;BME280;10058;57.654;12.044;2023-01-15T11:06:49;97476.13;;;7.85;100.00
19797;BME280;10058;57.654;12.044;2023-01-15T11:09:22;97464.69;;;7.89;100.00
19797;BME280;10058;57.654;12.044;2023-01-15T11:11:56;97477.09;;;7.79;100.00
19797;BME280;10058;57.654;12.044;2023-01-15T11:17:18;97470.16;;;7.74;100.00
19797;BME280;10058;57.654;12.044;2023-01-15T11:20:03;97456.72;;;7.95;100.00
19797;BME280;10058;57.654;12.044;2023-01-15T11:22:30;97463.63;;;7.99;100.00
19797;BME280;10058;57.654;12.044;2023-01-15T11:24:59;97467.59;;;7.67;100.00
19797;BME280;10058;57.654;12.044;2023-01-15T11:27:32;97461.22;;;7.85;100.00
19797;BME280;10058;57.654;12.044;2023-01-15T11:29:58;97450.69;;;7.85;100.00
19797;BME280;10058;57.654;12.044;2023-01-15T11:32:28;97463.78;;;7.90;100.00
19797;BME280;10058;57.654;12.044;2023-01-15T11:34:55;97441.22;;;7.77;100.00
19797;BME280;10058;57.654;12.044;2023-01-15T11:37:21;97444.75;;;7.73;100.00
19797;BME280;10058;57.654;12.044;2023-01-15T11:39:53;97431.59;;;7.74;100.00
19797;BME280;10058;57.654;12.044;2023-01-15T11:42:19;97431.63;;;7.73;100.00
19797;BME280;10058;57.654;12.044;2023-01-15T11:45:19;97424.56;;;7.76;100.00
19797;BME280;10058;57.654;12.044;2023-01-15T11:48:14;97431.41;;;7.86;100.00
19797;BME280;10058;57.654;12.044;2023-01-15T11:53:31;97418.44;;;7.76;100.00
19797;BME280;10058;57.654;12.044;2023-01-15T11:56:03;97407.97;;;7.73;100.00
19797;BME280;10058;57.654;12.044;2023-01-15T11:58:44;97396.63;;;7.69;100.00
19797;BME280;10058;57.654;12.044;2023-01-15T12:01:13;97393.81;;;7.80;100.00
19797;BME280;10058;57.654;12.044;2023-01-15T12:03:45;97397.44;;;7.73;100.00
19797;BME280;10058;57.654;12.044;2023-01-15T12:06:11;97376.47;;;7.69;100.00
19797;BME280;10058;57.654;12.044;2023-01-15T12:08:48;97392.81;;;7.90;100.00
19797;BME280;10058;57.654;12.044;2023-01-15T12:16:16;97367.75;;;7.67;100.00
19797;BME280;10058;57.654;12.044;2023-01-15T12:29:27;97329.63;;;7.42;100.00
19797;BME280;10058;57.654;12.044;2023-01-15T12:31:43;97326.13;;;7.40;100.00
19797;BME280;10058;57.654;12.044;2023-01-15T12:39:26;97300.72;;;7.41;100.00
19797;BME280;10058;57.654;12.044;2023-01-15T12:41:58;97319.94;;;7.44;100.00
19797;BME280;10058;57.654;12.044;2023-01-15T12:53:05;97271.06;;;6.74;100.00
19797;BME280;10058;57.654;12.044;2023-01-15T12:58:04;97270.81;;;6.92;100.00
19797;BME280;10058;57.654;12.044;2023-01-15T13:11:10;97249.75;;;6.95;100.00
19797;BME280;10058;57.654;12.044;2023-01-15T13:13:40;97252.09;;;7.15;100.00
19797;BME280;10058;57.654;12.044;2023-01-15T13:21:28;97214.28;;;7.27;100.00
19797;BME280;10058;57.654;12.044;2023-01-15T13:26:29;97220.84;;;6.97;100.00
19797;BME280;10058;57.654;12.044;2023-01-15T13:29:07;97206.59;;;7.15;100.00
19797;BME280;10058;57.654;12.044;2023-01-15T13:31:56;97212.22;;;6.92;100.00
19797;BME280;10058;57.654;12.044;2023-01-15T13:36:58;97193.50;;;7.12;100.00
19797;BME280;10058;57.654;12.044;2023-01-15T13:39:28;97184.28;;;6.86;100.00
19797;BME280;10058;57.654;12.044;2023-01-15T13:41:59;97196.97;;;7.14;100.00
19797;BME280;10058;57.654;12.044;2023-01-15T13:44:46;97176.94;;;7.10;100.00
19797;BME280;10058;57.654;12.044;2023-01-15T13:47:13;97164.03;;;6.94;100.00
19797;BME280;10058;57.654;12.044;2023-01-15T13:49:45;97179.84;;;6.91;100.00
19797;BME280;10058;57.654;12.044;2023-01-15T13:52:20;97144.91;;;6.86;100.00
19797;BME280;10058;57.654;12.044;2023-01-15T13:54:46;97158.88;;;6.88;100.00
19797;BME280;10058;57.654;12.044;2023-01-15T13:57:30;97161.28;;;7.02;100.00
19797;BME280;10058;57.654;12.044;2023-01-15T13:59:57;97157.16;;;6.87;100.00
19797;BME280;10058;57.654;12.044;2023-01-15T14:05:11;97139.50;;;6.95;100.00
19797;BME280;10058;57.654;12.044;2023-01-15T14:07:37;97130.78;;;6.93;100.00
19797;BME280;10058;57.654;12.044;2023-01-15T14:10:45;97102.34;;;6.69;100.00
19797;BME280;10058;57.654;12.044;2023-01-15T14:18:32;97097.81;;;6.77;100.00
19797;BME280;10058;57.654;12.044;2023-01-15T14:31:56;97038.06;;;6.41;100.00
19797;BME280;10058;57.654;12.044;2023-01-15T14:34:32;97018.81;;;6.42;100.00
19797;BME280;10058;57.654;12.044;2023-01-15T14:42:13;97026.97;;;6.23;100.00
19797;BME280;10058;57.654;12.044;2023-01-15T14:45:03;97016.44;;;6.26;100.00
19797;BME280;10058;57.654;12.044;2023-01-15T14:47:33;97020.03;;;6.22;100.00
19797;BME280;10058;57.654;12.044;2023-01-15T15:11:56;96986.16;;;5.44;100.00
19797;BME280;10058;57.654;12.044;2023-01-15T15:14:42;96968.84;;;5.34;100.00
19797;BME280;10058;57.654;12.044;2023-01-15T15:17:22;96979.34;;;5.31;100.00
19797;BME280;10058;57.654;12.044;2023-01-15T15:19:52;96972.31;;;5.36;100.00
19797;BME280;10058;57.654;12.044;2023-01-15T15:22:30;96961.09;;;5.23;100.00
19797;BME280;10058;57.654;12.044;2023-01-15T15:25:00;96967.84;;;5.43;100.00
19797;BME280;10058;57.654;12.044;2023-01-15T15:27:30;96970.72;;;5.23;100.00
19797;BME280;10058;57.654;12.044;2023-01-15T15:30:03;96958.50;;;5.23;100.00
19797;BME280;10058;57.654;12.044;2023-01-15T15:32:32;96957.78;;;5.11;100.00
19797;BME280;10058;57.654;12.044;2023-01-15T15:35:04;96944.56;;;5.20;100.00
19797;BME280;10058;57.654;12.044;2023-01-15T15:37:33;96926.38;;;5.11;100.00
19797;BME280;10058;57.654;12.044;2023-01-15T15:40:00;96936.78;;;5.18;100.00
19797;BME280;10058;57.654;12.044;2023-01-15T15:42:29;96935.03;;;5.19;100.00
19797;BME280;10058;57.654;12.044;2023-01-15T15:45:25;96941.00;;;5.27;100.00
19797;BME280;10058;57.654;12.044;2023-01-15T15:48:29;96932.19;;;5.34;100.00
19797;BME280;10058;57.654;12.044;2023-01-15T15:54:12;96925.25;;;5.30;100.00
19797;BME280;10058;57.654;12.044;2023-01-15T15:56:41;96912.88;;;5.43;100.00
19797;BME280;10058;57.654;12.044;2023-01-15T15:59:17;96927.47;;;5.59;100.00
19797;BME280;10058;57.654;12.044;2023-01-15T16:01:43;96918.59;;;5.69;100.00
19797;BME280;10058;57.654;12.044;2023-01-15T16:04:16;96918.47;;;5.77;100.00
19797;BME280;10058;57.654;12.044;2023-01-15T16:06:42;96925.34;;;5.85;100.00
19797;BME280;10058;57.654;12.044;2023-01-15T16:09:08;96906.13;;;5.85;100.00
19797;BME280;10058;57.654;12.044;2023-01-15T16:11:37;96906.97;;;5.87;100.00
19797;BME280;10058;57.654;12.044;2023-01-15T16:14:03;96892.56;;;6.15;100.00
19797;BME280;10058;57.654;12.044;2023-01-15T16:16:31;96885.63;;;6.11;100.00
19797;BME280;10058;57.654;12.044;2023-01-15T16:19:00;96894.97;;;6.26;100.00